sensor_id;sensor_type;location;lat;lon;timestamp;P1;durP1;ratioP1;P2;durP2;ratioP2
78774;SDS011;68119;43.398;3.676;2023-11-21T00:00:19;8.95;;;2.45;;
78774;SDS011;68119;43.398;3.676;2023-11-21T00:02:48;10.50;;;2.30;;
78774;SDS011;68119;43.398;3.676;2023-11-21T00:05:17;8.55;;;2.72;;
78774;SDS011;68119;43.398;3.676;2023-11-21T00:07:43;9.45;;;2.28;;
78774;SDS011;68119;43.398;3.676;2023-11-21T00:10:10;7.95;;;2.50;;
78774;SDS011;68119;43.398;3.676;2023-11-21T00:12:39;5.30;;;2.10;;
78774;SDS011;68119;43.398;3.676;2023-11-21T00:15:07;9.95;;;2.33;;
78774;SDS011;68119;43.398;3.676;2023-11-21T00:17:36;7.82;;;2.00;;
78774;SDS011;68119;43.398;3.676;2023-11-21T00:20:03;8.43;;;2.58;;
78774;SDS011;68119;43.398;3.676;2023-11-21T00:22:52;8.13;;;2.55;;
78774;SDS011;68119;43.398;3.676;2023-11-21T00:25:35;10.95;;;2.70;;
78774;SDS011;68119;43.398;3.676;2023-11-21T00:28:02;6.00;;;2.03;;
78774;SDS011;68119;43.398;3.676;2023-11-21T00:30:32;7.28;;;2.15;;
78774;SDS011;68119;43.398;3.676;2023-11-21T00:33:01;6.68;;;2.08;;
78774;SDS011;68119;43.398;3.676;2023-11-21T00:35:28;5.43;;;2.15;;
78774;SDS011;68119;43.398;3.676;2023-11-21T00:37:58;8.10;;;2.35;;
78774;SDS011;68119;43.398;3.676;2023-11-21T00:40:24;8.10;;;2.35;;
78774;SDS011;68119;43.398;3.676;2023-11-21T00:43:11;7.10;;;2.20;;
78774;SDS011;68119;43.398;3.676;2023-11-21T00:45:37;6.85;;;2.40;;
78774;SDS011;68119;43.398;3.676;2023-11-21T00:48:05;6.82;;;2.40;;
78774;SDS011;68119;43.398;3.676;2023-11-21T00:50:33;7.47;;;2.05;;
78774;SDS011;68119;43.398;3.676;2023-11-21T00:53:05;6.05;;;1.98;;
78774;SDS011;68119;43.398;3.676;2023-11-21T00:55:40;12.10;;;2.10;;
78774;SDS011;68119;43.398;3.676;2023-11-21T01:00:38;8.70;;;2.05;;
78774;SDS011;68119;43.398;3.676;2023-11-21T01:03:05;10.73;;;2.45;;
78774;SDS011;68119;43.398;3.676;2023-11-21T01:05:36;8.20;;;2.30;;
78774;SDS011;68119;43.398;3.676;2023-11-21T01:08:03;7.65;;;2.42;;
78774;SDS011;68119;43.398;3.676;2023-11-21T01:10:30;6.13;;;2.03;;
78774;SDS011;68119;43.398;3.676;2023-11-21T01:12:57;7.47;;;2.20;;
78774;SDS011;68119;43.398;3.676;2023-11-21T01:15:27;6.50;;;2.42;;
78774;SDS011;68119;43.398;3.676;2023-11-21T01:17:53;9.73;;;2.92;;
78774;SDS011;68119;43.398;3.676;2023-11-21T01:20:19;10.07;;;2.20;;
78774;SDS011;68119;43.398;3.676;2023-11-21T01:22:46;7.28;;;2.13;;
78774;SDS011;68119;43.398;3.676;2023-11-21T01:25:18;8.05;;;2.20;;
78774;SDS011;68119;43.398;3.676;2023-11-21T01:27:46;7.73;;;2.40;;
78774;SDS011;68119;43.398;3.676;2023-11-21T01:30:16;9.23;;;2.40;;
78774;SDS011;68119;43.398;3.676;2023-11-21T01:32:44;8.00;;;2.53;;
78774;SDS011;68119;43.398;3.676;2023-11-21T01:35:11;9.93;;;2.40;;
78774;SDS011;68119;43.398;3.676;2023-11-21T01:37:40;9.07;;;2.08;;
78774;SDS011;68119;43.398;3.676;2023-11-21T01:40:13;9.43;;;2.63;;
78774;SDS011;68119;43.398;3.676;2023-11-21T01:42:39;10.43;;;2.30;;
78774;SDS011;68119;43.398;3.676;2023-11-21T01:45:06;7.15;;;2.00;;
78774;SDS011;68119;43.398;3.676;2023-11-21T01:47:44;9.13;;;2.50;;
78774;SDS011;68119;43.398;3.676;2023-11-21T01:50:16;10.25;;;2.35;;
78774;SDS011;68119;43.398;3.676;2023-11-21T01:52:43;9.90;;;2.58;;
78774;SDS011;68119;43.398;3.676;2023-11-21T01:55:10;7.68;;;2.20;;
78774;SDS011;68119;43.398;3.676;2023-11-21T01:57:39;6.72;;;2.10;;
78774;SDS011;68119;43.398;3.676;2023-11-21T02:00:09;8.05;;;2.25;;
78774;SDS011;68119;43.398;3.676;2023-11-21T02:02:45;8.35;;;2.20;;
78774;SDS011;68119;43.398;3.676;2023-11-21T02:05:15;6.80;;;2.17;;
78774;SDS011;68119;43.398;3.676;2023-11-21T02:07:44;8.75;;;2.30;;
78774;SDS011;68119;43.398;3.676;2023-11-21T02:10:15;10.23;;;2.70;;
78774;SDS011;68119;43.398;3.676;2023-11-21T02:12:48;11.55;;;2.60;;
78774;SDS011;68119;43.398;3.676;2023-11-21T02:15:21;6.53;;;2.20;;
78774;SDS011;68119;43.398;3.676;2023-11-21T02:17:52;7.57;;;2.65;;
78774;SDS011;68119;43.398;3.676;2023-11-21T02:20:23;6.85;;;2.15;;
78774;SDS011;68119;43.398;3.676;2023-11-21T02:22:57;7.20;;;2.15;;
78774;SDS011;68119;43.398;3.676;2023-11-21T02:25:36;5.82;;;2.10;;
78774;SDS011;68119;43.398;3.676;2023-11-21T02:28:07;7.60;;;2.30;;
78774;SDS011;68119;43.398;3.676;2023-11-21T02:30:34;5.28;;;1.90;;
78774;SDS011;68119;43.398;3.676;2023-11-21T02:33:02;6.05;;;2.20;;
78774;SDS011;68119;43.398;3.676;2023-11-21T02:35:28;8.65;;;2.50;;
78774;SDS011;68119;43.398;3.676;2023-11-21T02:37:56;10.30;;;2.28;;
78774;SDS011;68119;43.398;3.676;2023-11-21T02:40:28;5.72;;;1.92;;
78774;SDS011;68119;43.398;3.676;2023-11-21T02:43:01;7.95;;;2.42;;
78774;SDS011;68119;43.398;3.676;2023-11-21T02:45:31;8.93;;;2.08;;
78774;SDS011;68119;43.398;3.676;2023-11-21T02:48:00;8.35;;;2.30;;
78774;SDS011;68119;43.398;3.676;2023-11-21T02:50:26;9.05;;;2.60;;
78774;SDS011;68119;43.398;3.676;2023-11-21T02:52:55;6.93;;;2.25;;
78774;SDS011;68119;43.398;3.676;2023-11-21T02:55:27;11.02;;;2.50;;
78774;SDS011;68119;43.398;3.676;2023-11-21T02:57:57;9.45;;;2.00;;
78774;SDS011;68119;43.398;3.676;2023-11-21T03:00:26;7.60;;;2.08;;
78774;SDS011;68119;43.398;3.676;2023-11-21T03:02:53;7.68;;;2.33;;
78774;SDS011;68119;43.398;3.676;2023-11-21T03:05:23;9.00;;;2.20;;
78774;SDS011;68119;43.398;3.676;2023-11-21T03:07:50;8.18;;;2.55;;
78774;SDS011;68119;43.398;3.676;2023-11-21T03:10:19;9.95;;;2.25;;
78774;SDS011;68119;43.398;3.676;2023-11-21T03:12:50;6.30;;;2.05;;
78774;SDS011;68119;43.398;3.676;2023-11-21T03:15:20;7.15;;;2.08;;
78774;SDS011;68119;43.398;3.676;2023-11-21T03:17:50;5.93;;;1.77;;
78774;SDS011;68119;43.398;3.676;2023-11-21T03:20:19;6.10;;;1.80;;
78774;SDS011;68119;43.398;3.676;2023-11-21T03:22:45;5.95;;;2.08;;
78774;SDS011;68119;43.398;3.676;2023-11-21T03:25:14;6.88;;;2.50;;
78774;SDS011;68119;43.398;3.676;2023-11-21T03:27:42;6.78;;;2.20;;
78774;SDS011;68119;43.398;3.676;2023-11-21T03:30:11;5.43;;;1.98;;
78774;SDS011;68119;43.398;3.676;2023-11-21T03:32:40;6.10;;;2.50;;
78774;SDS011;68119;43.398;3.676;2023-11-21T03:35:07;6.40;;;2.05;;
78774;SDS011;68119;43.398;3.676;2023-11-21T03:37:36;5.18;;;1.73;;
78774;SDS011;68119;43.398;3.676;2023-11-21T03:40:07;6.57;;;1.92;;
78774;SDS011;68119;43.398;3.676;2023-11-21T03:42:39;6.88;;;2.40;;
78774;SDS011;68119;43.398;3.676;2023-11-21T03:45:06;7.68;;;2.33;;
78774;SDS011;68119;43.398;3.676;2023-11-21T03:47:34;9.38;;;2.35;;
78774;SDS011;68119;43.398;3.676;2023-11-21T03:50:06;8.38;;;2.28;;
78774;SDS011;68119;43.398;3.676;2023-11-21T03:52:33;10.63;;;2.38;;
78774;SDS011;68119;43.398;3.676;2023-11-21T03:55:03;5.07;;;1.85;;
78774;SDS011;68119;43.398;3.676;2023-11-21T03:57:30;8.23;;;2.38;;
78774;SDS011;68119;43.398;3.676;2023-11-21T03:59:56;6.70;;;1.80;;
78774;SDS011;68119;43.398;3.676;2023-11-21T04:02:22;7.90;;;2.17;;
78774;SDS011;68119;43.398;3.676;2023-11-21T04:04:51;8.02;;;2.45;;
78774;SDS011;68119;43.398;3.676;2023-11-21T04:07:17;7.78;;;2.38;;
78774;SDS011;68119;43.398;3.676;2023-11-21T04:09:46;6.88;;;2.13;;
78774;SDS011;68119;43.398;3.676;2023-11-21T04:12:13;7.20;;;2.10;;
78774;SDS011;68119;43.398;3.676;2023-11-21T04:14:39;7.78;;;2.13;;
78774;SDS011;68119;43.398;3.676;2023-11-21T04:17:08;5.35;;;1.90;;
78774;SDS011;68119;43.398;3.676;2023-11-21T04:19:34;7.15;;;2.00;;
78774;SDS011;68119;43.398;3.676;2023-11-21T04:22:01;5.38;;;2.20;;
78774;SDS011;68119;43.398;3.676;2023-11-21T04:24:27;6.03;;;2.20;;
78774;SDS011;68119;43.398;3.676;2023-11-21T04:26:53;5.30;;;1.88;;
78774;SDS011;68119;43.398;3.676;2023-11-21T04:29:20;6.20;;;2.08;;
78774;SDS011;68119;43.398;3.676;2023-11-21T04:31:46;11.77;;;2.30;;
78774;SDS011;68119;43.398;3.676;2023-11-21T04:34:14;4.53;;;1.70;;
78774;SDS011;68119;43.398;3.676;2023-11-21T04:36:46;7.50;;;2.13;;
78774;SDS011;68119;43.398;3.676;2023-11-21T04:39:14;6.80;;;1.90;;
78774;SDS011;68119;43.398;3.676;2023-11-21T04:41:43;7.68;;;2.13;;
78774;SDS011;68119;43.398;3.676;2023-11-21T04:44:10;7.47;;;2.05;;
78774;SDS011;68119;43.398;3.676;2023-11-21T04:46:36;11.23;;;2.47;;
78774;SDS011;68119;43.398;3.676;2023-11-21T04:49:03;7.10;;;2.22;;
78774;SDS011;68119;43.398;3.676;2023-11-21T04:51:29;11.05;;;2.35;;
78774;SDS011;68119;43.398;3.676;2023-11-21T04:54:00;13.05;;;2.55;;
78774;SDS011;68119;43.398;3.676;2023-11-21T04:56:26;5.55;;;1.75;;
78774;SDS011;68119;43.398;3.676;2023-11-21T04:58:53;7.03;;;1.90;;
78774;SDS011;68119;43.398;3.676;2023-11-21T05:01:19;7.53;;;2.20;;
78774;SDS011;68119;43.398;3.676;2023-11-21T05:03:48;6.82;;;2.22;;
78774;SDS011;68119;43.398;3.676;2023-11-21T05:06:22;6.20;;;2.00;;
78774;SDS011;68119;43.398;3.676;2023-11-21T05:08:52;5.90;;;1.80;;
78774;SDS011;68119;43.398;3.676;2023-11-21T05:11:28;9.32;;;2.20;;
78774;SDS011;68119;43.398;3.676;2023-11-21T05:13:57;6.75;;;1.63;;
78774;SDS011;68119;43.398;3.676;2023-11-21T05:16:26;6.05;;;1.80;;
78774;SDS011;68119;43.398;3.676;2023-11-21T05:19:03;5.78;;;1.90;;
78774;SDS011;68119;43.398;3.676;2023-11-21T05:21:38;8.05;;;1.73;;
78774;SDS011;68119;43.398;3.676;2023-11-21T05:24:13;6.85;;;1.80;;
78774;SDS011;68119;43.398;3.676;2023-11-21T05:26:39;6.07;;;1.65;;
78774;SDS011;68119;43.398;3.676;2023-11-21T05:29:08;4.28;;;1.52;;
78774;SDS011;68119;43.398;3.676;2023-11-21T05:31:36;7.00;;;1.70;;
78774;SDS011;68119;43.398;3.676;2023-11-21T05:34:03;5.85;;;2.00;;
78774;SDS011;68119;43.398;3.676;2023-11-21T05:36:36;6.07;;;1.73;;
78774;SDS011;68119;43.398;3.676;2023-11-21T05:39:03;4.82;;;1.48;;
78774;SDS011;68119;43.398;3.676;2023-11-21T05:41:31;5.32;;;1.80;;
78774;SDS011;68119;43.398;3.676;2023-11-21T05:43:58;8.68;;;2.08;;
78774;SDS011;68119;43.398;3.676;2023-11-21T05:46:24;4.38;;;1.58;;
78774;SDS011;68119;43.398;3.676;2023-11-21T05:48:51;6.10;;;1.52;;
78774;SDS011;68119;43.398;3.676;2023-11-21T05:51:23;3.20;;;1.38;;
78774;SDS011;68119;43.398;3.676;2023-11-21T05:53:50;4.03;;;1.42;;
78774;SDS011;68119;43.398;3.676;2023-11-21T05:56:16;4.28;;;1.23;;
78774;SDS011;68119;43.398;3.676;2023-11-21T05:58:43;3.15;;;1.30;;
78774;SDS011;68119;43.398;3.676;2023-11-21T06:01:09;2.05;;;1.10;;
78774;SDS011;68119;43.398;3.676;2023-11-21T06:03:38;4.38;;;1.40;;
78774;SDS011;68119;43.398;3.676;2023-11-21T06:06:05;3.75;;;1.00;;
78774;SDS011;68119;43.398;3.676;2023-11-21T06:11:10;1.63;;;0.90;;
78774;SDS011;68119;43.398;3.676;2023-11-21T06:13:39;1.92;;;0.80;;
78774;SDS011;68119;43.398;3.676;2023-11-21T06:16:05;1.70;;;0.85;;
78774;SDS011;68119;43.398;3.676;2023-11-21T06:18:38;2.05;;;0.90;;
78774;SDS011;68119;43.398;3.676;2023-11-21T06:21:05;1.42;;;0.70;;
78774;SDS011;68119;43.398;3.676;2023-11-21T06:23:32;1.60;;;0.93;;
78774;SDS011;68119;43.398;3.676;2023-11-21T06:25:58;1.75;;;0.63;;
78774;SDS011;68119;43.398;3.676;2023-11-21T06:28:30;2.33;;;1.05;;
78774;SDS011;68119;43.398;3.676;2023-11-21T06:30:56;2.45;;;1.15;;
78774;SDS011;68119;43.398;3.676;2023-11-21T06:33:30;1.38;;;0.70;;
78774;SDS011;68119;43.398;3.676;2023-11-21T06:35:57;0.88;;;0.68;;
78774;SDS011;68119;43.398;3.676;2023-11-21T06:38:28;1.87;;;0.87;;
78774;SDS011;68119;43.398;3.676;2023-11-21T06:40:55;0.57;;;0.38;;
78774;SDS011;68119;43.398;3.676;2023-11-21T06:43:23;1.38;;;0.68;;
78774;SDS011;68119;43.398;3.676;2023-11-21T06:45:51;0.70;;;0.60;;
78774;SDS011;68119;43.398;3.676;2023-11-21T06:48:20;1.00;;;0.45;;
78774;SDS011;68119;43.398;3.676;2023-11-21T06:50:46;2.25;;;1.17;;
78774;SDS011;68119;43.398;3.676;2023-11-21T06:53:15;2.33;;;0.75;;
78774;SDS011;68119;43.398;3.676;2023-11-21T06:55:44;0.82;;;0.70;;
78774;SDS011;68119;43.398;3.676;2023-11-21T06:58:14;0.68;;;0.68;;
78774;SDS011;68119;43.398;3.676;2023-11-21T07:00:40;2.15;;;0.77;;
78774;SDS011;68119;43.398;3.676;2023-11-21T07:03:11;2.40;;;0.60;;
78774;SDS011;68119;43.398;3.676;2023-11-21T07:05:38;0.82;;;0.60;;
78774;SDS011;68119;43.398;3.676;2023-11-21T07:08:07;0.90;;;0.70;;
78774;SDS011;68119;43.398;3.676;2023-11-21T07:10:34;3.35;;;0.93;;
78774;SDS011;68119;43.398;3.676;2023-11-21T07:13:05;0.70;;;0.70;;
78774;SDS011;68119;43.398;3.676;2023-11-21T07:15:32;1.17;;;1.00;;
78774;SDS011;68119;43.398;3.676;2023-11-21T07:18:01;2.00;;;1.38;;
78774;SDS011;68119;43.398;3.676;2023-11-21T07:20:33;1.42;;;1.30;;
78774;SDS011;68119;43.398;3.676;2023-11-21T07:23:00;1.65;;;1.38;;
78774;SDS011;68119;43.398;3.676;2023-11-21T07:25:31;1.27;;;1.00;;
78774;SDS011;68119;43.398;3.676;2023-11-21T07:27:59;1.38;;;1.25;;
78774;SDS011;68119;43.398;3.676;2023-11-21T07:30:33;2.40;;;2.13;;
78774;SDS011;68119;43.398;3.676;2023-11-21T07:33:05;6.68;;;3.33;;
78774;SDS011;68119;43.398;3.676;2023-11-21T07:35:35;2.92;;;2.20;;
78774;SDS011;68119;43.398;3.676;2023-11-21T07:38:04;2.22;;;1.90;;
78774;SDS011;68119;43.398;3.676;2023-11-21T07:40:33;2.05;;;1.92;;
78774;SDS011;68119;43.398;3.676;2023-11-21T07:43:03;2.25;;;1.75;;
78774;SDS011;68119;43.398;3.676;2023-11-21T07:45:31;3.42;;;1.50;;
78774;SDS011;68119;43.398;3.676;2023-11-21T07:47:58;2.20;;;2.00;;
78774;SDS011;68119;43.398;3.676;2023-11-21T07:50:26;2.15;;;1.90;;
78774;SDS011;68119;43.398;3.676;2023-11-21T07:52:53;4.18;;;1.90;;
78774;SDS011;68119;43.398;3.676;2023-11-21T07:55:19;2.15;;;1.50;;
78774;SDS011;68119;43.398;3.676;2023-11-21T07:57:46;1.50;;;1.20;;
78774;SDS011;68119;43.398;3.676;2023-11-21T08:00:13;3.53;;;1.70;;
78774;SDS011;68119;43.398;3.676;2023-11-21T08:02:40;1.77;;;1.30;;
78774;SDS011;68119;43.398;3.676;2023-11-21T08:05:13;2.10;;;1.52;;
78774;SDS011;68119;43.398;3.676;2023-11-21T08:07:46;4.65;;;2.72;;
78774;SDS011;68119;43.398;3.676;2023-11-21T08:10:12;3.47;;;1.52;;
78774;SDS011;68119;43.398;3.676;2023-11-21T08:12:39;1.70;;;0.95;;
78774;SDS011;68119;43.398;3.676;2023-11-21T08:15:08;4.03;;;2.08;;
78774;SDS011;68119;43.398;3.676;2023-11-21T08:17:36;3.58;;;1.02;;
78774;SDS011;68119;43.398;3.676;2023-11-21T08:20:07;2.80;;;1.00;;
78774;SDS011;68119;43.398;3.676;2023-11-21T08:22:36;1.00;;;0.80;;
78774;SDS011;68119;43.398;3.676;2023-11-21T08:25:02;2.78;;;1.70;;
78774;SDS011;68119;43.398;3.676;2023-11-21T08:27:32;6.63;;;3.00;;
78774;SDS011;68119;43.398;3.676;2023-11-21T08:30:03;4.15;;;1.90;;
78774;SDS011;68119;43.398;3.676;2023-11-21T08:32:32;2.40;;;1.35;;
78774;SDS011;68119;43.398;3.676;2023-11-21T08:35:02;1.33;;;1.13;;
78774;SDS011;68119;43.398;3.676;2023-11-21T08:37:31;1.42;;;1.05;;
78774;SDS011;68119;43.398;3.676;2023-11-21T08:40:01;2.20;;;1.35;;
78774;SDS011;68119;43.398;3.676;2023-11-21T08:42:27;2.67;;;1.48;;
78774;SDS011;68119;43.398;3.676;2023-11-21T08:50:06;5.32;;;2.50;;
78774;SDS011;68119;43.398;3.676;2023-11-21T08:52:55;3.13;;;1.42;;
78774;SDS011;68119;43.398;3.676;2023-11-21T09:03:06;1.25;;;0.70;;
78774;SDS011;68119;43.398;3.676;2023-11-21T09:05:34;2.10;;;0.70;;
78774;SDS011;68119;43.398;3.676;2023-11-21T09:08:04;5.70;;;1.00;;
78774;SDS011;68119;43.398;3.676;2023-11-21T09:10:32;1.13;;;0.47;;
78774;SDS011;68119;43.398;3.676;2023-11-21T09:13:03;2.22;;;0.60;;
78774;SDS011;68119;43.398;3.676;2023-11-21T09:15:32;1.48;;;0.60;;
78774;SDS011;68119;43.398;3.676;2023-11-21T09:18:01;0.45;;;0.43;;
78774;SDS011;68119;43.398;3.676;2023-11-21T09:20:28;2.90;;;1.00;;
78774;SDS011;68119;43.398;3.676;2023-11-21T09:22:57;2.83;;;0.65;;
78774;SDS011;68119;43.398;3.676;2023-11-21T09:25:26;0.40;;;0.40;;
78774;SDS011;68119;43.398;3.676;2023-11-21T09:27:58;0.75;;;0.68;;
78774;SDS011;68119;43.398;3.676;2023-11-21T09:30:28;2.17;;;0.85;;
78774;SDS011;68119;43.398;3.676;2023-11-21T09:32:56;0.90;;;0.65;;
78774;SDS011;68119;43.398;3.676;2023-11-21T09:35:28;3.28;;;0.88;;
78774;SDS011;68119;43.398;3.676;2023-11-21T09:37:54;0.85;;;0.50;;
78774;SDS011;68119;43.398;3.676;2023-11-21T09:40:21;0.57;;;0.45;;
78774;SDS011;68119;43.398;3.676;2023-11-21T09:42:55;1.48;;;0.52;;
78774;SDS011;68119;43.398;3.676;2023-11-21T09:45:28;1.45;;;0.60;;
78774;SDS011;68119;43.398;3.676;2023-11-21T09:47:59;2.50;;;0.63;;
78774;SDS011;68119;43.398;3.676;2023-11-21T09:55:48;0.98;;;0.70;;
78774;SDS011;68119;43.398;3.676;2023-11-21T09:58:19;1.73;;;1.25;;
78774;SDS011;68119;43.398;3.676;2023-11-21T10:01:02;0.80;;;0.80;;
78774;SDS011;68119;43.398;3.676;2023-11-21T10:03:35;2.05;;;0.93;;
78774;SDS011;68119;43.398;3.676;2023-11-21T10:06:07;0.88;;;0.60;;
78774;SDS011;68119;43.398;3.676;2023-11-21T10:08:43;2.08;;;0.88;;
78774;SDS011;68119;43.398;3.676;2023-11-21T10:11:10;2.50;;;0.70;;
78774;SDS011;68119;43.398;3.676;2023-11-21T10:13:45;0.98;;;0.80;;
78774;SDS011;68119;43.398;3.676;2023-11-21T10:18:50;1.00;;;0.43;;
78774;SDS011;68119;43.398;3.676;2023-11-21T10:21:23;0.45;;;0.40;;
78774;SDS011;68119;43.398;3.676;2023-11-21T10:23:52;1.13;;;0.40;;
78774;SDS011;68119;43.398;3.676;2023-11-21T10:26:19;4.53;;;0.40;;
78774;SDS011;68119;43.398;3.676;2023-11-21T10:31:32;0.45;;;0.43;;
78774;SDS011;68119;43.398;3.676;2023-11-21T10:36:46;0.65;;;0.60;;
78774;SDS011;68119;43.398;3.676;2023-11-21T10:39:33;0.57;;;0.40;;
78774;SDS011;68119;43.398;3.676;2023-11-21T10:41:59;2.33;;;0.50;;
78774;SDS011;68119;43.398;3.676;2023-11-21T10:44:28;1.10;;;0.55;;
78774;SDS011;68119;43.398;3.676;2023-11-21T10:46:55;1.88;;;0.68;;
78774;SDS011;68119;43.398;3.676;2023-11-21T10:49:25;0.40;;;0.32;;
78774;SDS011;68119;43.398;3.676;2023-11-21T10:51:53;0.60;;;0.43;;
78774;SDS011;68119;43.398;3.676;2023-11-21T10:54:20;1.25;;;0.57;;
78774;SDS011;68119;43.398;3.676;2023-11-21T10:56:58;1.70;;;0.45;;
78774;SDS011;68119;43.398;3.676;2023-11-21T10:59:28;0.75;;;0.40;;
78774;SDS011;68119;43.398;3.676;2023-11-21T11:01:58;1.17;;;0.50;;
78774;SDS011;68119;43.398;3.676;2023-11-21T11:04:40;2.20;;;0.70;;
78774;SDS011;68119;43.398;3.676;2023-11-21T11:07:10;0.80;;;0.30;;
78774;SDS011;68119;43.398;3.676;2023-11-21T11:09:38;3.35;;;0.70;;
78774;SDS011;68119;43.398;3.676;2023-11-21T11:12:08;0.85;;;0.30;;
78774;SDS011;68119;43.398;3.676;2023-11-21T11:14:35;0.68;;;0.50;;
78774;SDS011;68119;43.398;3.676;2023-11-21T11:17:04;2.15;;;0.50;;
78774;SDS011;68119;43.398;3.676;2023-11-21T11:19:47;2.75;;;0.50;;
78774;SDS011;68119;43.398;3.676;2023-11-21T11:22:35;0.30;;;0.30;;
78774;SDS011;68119;43.398;3.676;2023-11-21T11:30:57;0.30;;;0.30;;
78774;SDS011;68119;43.398;3.676;2023-11-21T11:36:13;1.75;;;0.40;;
78774;SDS011;68119;43.398;3.676;2023-11-21T11:38:55;0.35;;;0.25;;
78774;SDS011;68119;43.398;3.676;2023-11-21T11:41:29;0.40;;;0.30;;
78774;SDS011;68119;43.398;3.676;2023-11-21T11:43:59;0.47;;;0.30;;
78774;SDS011;68119;43.398;3.676;2023-11-21T11:46:42;0.80;;;0.43;;
78774;SDS011;68119;43.398;3.676;2023-11-21T11:49:26;1.75;;;0.25;;
78774;SDS011;68119;43.398;3.676;2023-11-21T11:54:39;4.57;;;0.60;;
78774;SDS011;68119;43.398;3.676;2023-11-21T11:57:06;0.35;;;0.30;;
78774;SDS011;68119;43.398;3.676;2023-11-21T12:02:44;0.57;;;0.40;;
78774;SDS011;68119;43.398;3.676;2023-11-21T12:05:11;1.10;;;0.50;;
78774;SDS011;68119;43.398;3.676;2023-11-21T12:10:14;0.85;;;0.30;;
78774;SDS011;68119;43.398;3.676;2023-11-21T12:12:49;1.88;;;0.40;;
78774;SDS011;68119;43.398;3.676;2023-11-21T12:15:27;0.60;;;0.50;;
78774;SDS011;68119;43.398;3.676;2023-11-21T12:17:58;2.63;;;0.40;;
78774;SDS011;68119;43.398;3.676;2023-11-21T12:23:00;1.35;;;0.30;;
78774;SDS011;68119;43.398;3.676;2023-11-21T12:25:30;0.70;;;0.28;;
78774;SDS011;68119;43.398;3.676;2023-11-21T12:30:33;0.50;;;0.43;;
78774;SDS011;68119;43.398;3.676;2023-11-21T12:33:06;1.48;;;0.30;;
78774;SDS011;68119;43.398;3.676;2023-11-21T12:35:36;3.92;;;0.80;;
78774;SDS011;68119;43.398;3.676;2023-11-21T12:38:05;2.08;;;0.47;;
78774;SDS011;68119;43.398;3.676;2023-11-21T12:40:37;0.17;;;0.17;;
78774;SDS011;68119;43.398;3.676;2023-11-21T12:43:03;4.60;;;0.60;;
78774;SDS011;68119;43.398;3.676;2023-11-21T12:45:33;2.88;;;0.70;;
78774;SDS011;68119;43.398;3.676;2023-11-21T12:48:03;1.83;;;0.73;;
78774;SDS011;68119;43.398;3.676;2023-11-21T12:50:34;0.40;;;0.40;;
78774;SDS011;68119;43.398;3.676;2023-11-21T12:53:02;6.50;;;0.70;;
78774;SDS011;68119;43.398;3.676;2023-11-21T12:55:36;3.67;;;0.70;;
78774;SDS011;68119;43.398;3.676;2023-11-21T12:58:03;0.30;;;0.30;;
78774;SDS011;68119;43.398;3.676;2023-11-21T13:00:35;0.70;;;0.40;;
78774;SDS011;68119;43.398;3.676;2023-11-21T13:03:08;1.48;;;0.40;;
78774;SDS011;68119;43.398;3.676;2023-11-21T13:05:37;0.90;;;0.60;;
78774;SDS011;68119;43.398;3.676;2023-11-21T13:08:07;1.85;;;0.50;;
78774;SDS011;68119;43.398;3.676;2023-11-21T13:10:37;1.05;;;0.70;;
78774;SDS011;68119;43.398;3.676;2023-11-21T13:13:05;0.68;;;0.50;;
78774;SDS011;68119;43.398;3.676;2023-11-21T13:15:38;10.57;;;1.35;;
78774;SDS011;68119;43.398;3.676;2023-11-21T13:18:15;2.78;;;0.93;;
78774;SDS011;68119;43.398;3.676;2023-11-21T13:20:49;2.97;;;0.70;;
78774;SDS011;68119;43.398;3.676;2023-11-21T13:26:04;1.85;;;0.40;;
78774;SDS011;68119;43.398;3.676;2023-11-21T13:28:31;0.30;;;0.30;;
78774;SDS011;68119;43.398;3.676;2023-11-21T13:31:00;0.45;;;0.40;;
78774;SDS011;68119;43.398;3.676;2023-11-21T13:33:53;0.43;;;0.43;;
78774;SDS011;68119;43.398;3.676;2023-11-21T13:36:40;1.88;;;0.40;;
78774;SDS011;68119;43.398;3.676;2023-11-21T13:39:07;0.90;;;0.45;;
78774;SDS011;68119;43.398;3.676;2023-11-21T13:41:43;1.27;;;0.45;;
78774;SDS011;68119;43.398;3.676;2023-11-21T13:44:20;2.05;;;0.75;;
78774;SDS011;68119;43.398;3.676;2023-11-21T13:47:05;0.95;;;0.68;;
78774;SDS011;68119;43.398;3.676;2023-11-21T13:49:35;5.00;;;0.60;;
78774;SDS011;68119;43.398;3.676;2023-11-21T13:52:11;5.97;;;0.93;;
78774;SDS011;68119;43.398;3.676;2023-11-21T13:54:41;2.85;;;0.77;;
78774;SDS011;68119;43.398;3.676;2023-11-21T13:57:15;2.42;;;0.55;;
78774;SDS011;68119;43.398;3.676;2023-11-21T13:59:42;3.08;;;0.63;;
78774;SDS011;68119;43.398;3.676;2023-11-21T14:02:21;1.23;;;0.80;;
78774;SDS011;68119;43.398;3.676;2023-11-21T14:04:57;2.33;;;0.73;;
78774;SDS011;68119;43.398;3.676;2023-11-21T14:07:34;2.92;;;0.80;;
78774;SDS011;68119;43.398;3.676;2023-11-21T14:10:05;0.83;;;0.70;;
78774;SDS011;68119;43.398;3.676;2023-11-21T14:12:48;2.50;;;0.70;;
78774;SDS011;68119;43.398;3.676;2023-11-21T14:15:18;1.10;;;0.68;;
78774;SDS011;68119;43.398;3.676;2023-11-21T14:20:43;0.75;;;0.63;;
78774;SDS011;68119;43.398;3.676;2023-11-21T14:23:10;3.03;;;0.70;;
78774;SDS011;68119;43.398;3.676;2023-11-21T14:25:37;3.13;;;0.85;;
78774;SDS011;68119;43.398;3.676;2023-11-21T14:28:05;3.13;;;0.75;;
78774;SDS011;68119;43.398;3.676;2023-11-21T14:30:32;0.88;;;0.55;;
78774;SDS011;68119;43.398;3.676;2023-11-21T14:33:02;1.38;;;0.80;;
78774;SDS011;68119;43.398;3.676;2023-11-21T14:35:29;1.52;;;0.88;;
78774;SDS011;68119;43.398;3.676;2023-11-21T14:38:00;1.48;;;0.80;;
78774;SDS011;68119;43.398;3.676;2023-11-21T14:40:39;1.55;;;0.75;;
78774;SDS011;68119;43.398;3.676;2023-11-21T14:43:12;3.50;;;0.85;;
78774;SDS011;68119;43.398;3.676;2023-11-21T14:45:38;1.25;;;0.57;;
78774;SDS011;68119;43.398;3.676;2023-11-21T14:48:08;3.05;;;0.85;;
78774;SDS011;68119;43.398;3.676;2023-11-21T14:50:41;0.88;;;0.50;;
78774;SDS011;68119;43.398;3.676;2023-11-21T14:53:30;2.10;;;0.77;;
78774;SDS011;68119;43.398;3.676;2023-11-21T14:56:15;4.03;;;1.08;;
78774;SDS011;68119;43.398;3.676;2023-11-21T14:58:58;1.15;;;0.70;;
78774;SDS011;68119;43.398;3.676;2023-11-21T15:01:31;1.40;;;0.57;;
78774;SDS011;68119;43.398;3.676;2023-11-21T15:04:11;2.38;;;0.77;;
78774;SDS011;68119;43.398;3.676;2023-11-21T15:06:50;1.13;;;0.30;;
78774;SDS011;68119;43.398;3.676;2023-11-21T15:09:23;2.25;;;0.82;;
78774;SDS011;68119;43.398;3.676;2023-11-21T15:12:02;1.80;;;0.82;;
78774;SDS011;68119;43.398;3.676;2023-11-21T15:14:41;1.40;;;0.82;;
78774;SDS011;68119;43.398;3.676;2023-11-21T15:17:14;1.13;;;0.80;;
78774;SDS011;68119;43.398;3.676;2023-11-21T15:19:54;1.20;;;1.10;;
78774;SDS011;68119;43.398;3.676;2023-11-21T15:22:41;1.02;;;0.90;;
78774;SDS011;68119;43.398;3.676;2023-11-21T15:25:11;1.98;;;0.90;;
78774;SDS011;68119;43.398;3.676;2023-11-21T15:27:41;0.97;;;0.80;;
78774;SDS011;68119;43.398;3.676;2023-11-21T15:30:18;2.42;;;0.90;;
78774;SDS011;68119;43.398;3.676;2023-11-21T15:32:50;0.98;;;0.88;;
78774;SDS011;68119;43.398;3.676;2023-11-21T15:35:22;2.25;;;0.90;;
78774;SDS011;68119;43.398;3.676;2023-11-21T15:37:51;0.93;;;0.65;;
78774;SDS011;68119;43.398;3.676;2023-11-21T15:40:18;2.42;;;0.70;;
78774;SDS011;68119;43.398;3.676;2023-11-21T15:42:49;2.08;;;1.00;;
78774;SDS011;68119;43.398;3.676;2023-11-21T15:45:16;1.42;;;0.90;;
78774;SDS011;68119;43.398;3.676;2023-11-21T15:47:46;0.98;;;0.80;;
78774;SDS011;68119;43.398;3.676;2023-11-21T15:50:29;1.88;;;0.70;;
78774;SDS011;68119;43.398;3.676;2023-11-21T15:53:18;1.38;;;0.80;;
78774;SDS011;68119;43.398;3.676;2023-11-21T15:55:45;3.83;;;0.98;;
78774;SDS011;68119;43.398;3.676;2023-11-21T15:58:14;2.70;;;1.00;;
78774;SDS011;68119;43.398;3.676;2023-11-21T16:00:43;2.83;;;0.95;;
78774;SDS011;68119;43.398;3.676;2023-11-21T16:03:28;4.63;;;1.20;;
78774;SDS011;68119;43.398;3.676;2023-11-21T16:06:02;0.88;;;0.82;;